createdAt,value
2022-12-22T00:02:00.914Z,53.23
2022-12-22T00:04:46.706Z,47.83
2022-12-22T00:07:32.676Z,46.53
2022-12-22T00:10:18.508Z,44.87
2022-12-22T00:13:06.652Z,47.97
2022-12-22T00:15:54.265Z,49.37
2022-12-22T00:18:40.645Z,52.47
2022-12-22T00:21:29.799Z,42.77
2022-12-22T00:24:16.170Z,41.33
2022-12-22T00:27:02.484Z,47.97
2022-12-22T00:29:55.645Z,46.37
2022-12-22T00:32:42.411Z,43.40
2022-12-22T00:35:32.840Z,44.47
2022-12-22T00:38:18.381Z,48.27
2022-12-22T00:41:04.063Z,48.33
2022-12-22T00:43:49.857Z,49.43
2022-12-22T00:46:38.111Z,48.10
2022-12-22T00:49:24.667Z,43.67
2022-12-22T00:52:11.521Z,48.00
2022-12-22T00:54:57.372Z,52.17
2022-12-22T00:57:47.071Z,55.00
2022-12-22T01:00:36.151Z,56.07
2022-12-22T01:03:25.110Z,48.60
2022-12-22T01:06:11.357Z,56.47
2022-12-22T01:08:57.523Z,53.73
2022-12-22T01:11:43.667Z,57.87
2022-12-22T01:14:31.006Z,59.90
2022-12-22T01:17:16.993Z,60.90
2022-12-22T01:20:04.415Z,60.30
2022-12-22T01:22:50.599Z,62.63
2022-12-22T01:25:38.530Z,54.90
2022-12-22T01:28:24.558Z,55.95
2022-12-22T01:31:10.557Z,55.20
2022-12-22T01:33:56.219Z,55.43
2022-12-22T01:36:43.418Z,67.07
2022-12-22T01:39:29.328Z,87.33
2022-12-22T01:42:15.077Z,60.30
2022-12-22T01:45:00.826Z,59.63
2022-12-22T01:47:52.416Z,57.80
2022-12-22T01:54:12.660Z,233.57
2022-12-22T01:56:58.539Z,304.77
2022-12-22T01:59:44.632Z,404.83
2022-12-22T02:02:31.289Z,394.80
2022-12-22T02:05:19.743Z,121.78
2022-12-22T02:08:15.430Z,503.63
2022-12-22T02:11:26.272Z,520.13
2022-12-22T02:14:30.416Z,573.08
2022-12-22T02:17:25.594Z,497.63
2022-12-22T02:20:41.598Z,305.40
2022-12-22T02:23:37.060Z,372.92
2022-12-22T02:26:35.692Z,421.40
2022-12-22T02:29:23.346Z,522.53
2022-12-22T02:32:09.182Z,453.65
2022-12-22T02:34:54.925Z,346.80
2022-12-22T02:37:48.885Z,349.07
2022-12-22T02:40:42.017Z,382.00
2022-12-22T02:43:42.029Z,373.87
2022-12-22T02:46:35.413Z,262.67
2022-12-22T02:49:29.537Z,287.45
2022-12-22T02:52:25.958Z,278.37
2022-12-22T02:55:11.738Z,188.87
2022-12-22T02:57:58.249Z,135.97
2022-12-22T03:00:45.750Z,136.50
2022-12-22T03:03:32.429Z,229.60
2022-12-22T03:06:18.630Z,214.30
2022-12-22T03:09:05.296Z,198.80
2022-12-22T03:11:51.063Z,157.90
2022-12-22T03:14:36.759Z,161.15
2022-12-22T03:17:25.183Z,229.37
2022-12-22T03:20:11.290Z,119.83
2022-12-22T03:22:57.181Z,141.10
2022-12-22T03:25:43.257Z,133.77
2022-12-22T03:28:12.510Z,149.97
2022-12-22T03:30:41.432Z,242.23
2022-12-22T03:33:11.190Z,208.93
2022-12-22T03:35:39.652Z,239.73
2022-12-22T03:38:08.114Z,246.07
2022-12-22T03:40:36.587Z,262.87
2022-12-22T03:43:22.222Z,205.37
2022-12-22T03:46:13.658Z,229.30
2022-12-22T03:48:43.950Z,260.77
2022-12-22T03:51:12.722Z,295.87
2022-12-22T03:53:41.173Z,212.90
2022-12-22T03:56:10.098Z,264.27
2022-12-22T03:58:38.424Z,207.13
2022-12-22T04:01:08.374Z,271.37
2022-12-22T04:03:36.747Z,303.10
2022-12-22T04:06:06.748Z,360.97
2022-12-22T04:08:35.202Z,303.97
2022-12-22T04:11:20.940Z,365.03
2022-12-22T04:13:49.346Z,338.27
2022-12-22T04:16:17.796Z,199.90
2022-12-22T04:18:46.618Z,229.47
2022-12-22T04:21:16.579Z,354.20
2022-12-22T04:23:45.244Z,198.37
2022-12-22T04:26:13.687Z,89.70
2022-12-22T04:28:42.042Z,119.83
2022-12-22T04:31:10.457Z,203.07
2022-12-22T04:33:39.025Z,215.20
2022-12-22T04:36:08.081Z,322.07
2022-12-22T04:38:38.149Z,207.03
2022-12-22T04:41:07.310Z,95.40
2022-12-22T04:43:36.526Z,128.03
2022-12-22T04:46:05.123Z,99.50
2022-12-22T04:48:34.122Z,111.73
2022-12-22T04:51:02.845Z,105.30
2022-12-22T04:53:32.532Z,114.87
2022-12-22T04:56:03.899Z,87.83
2022-12-22T04:58:33.220Z,82.73
2022-12-22T05:01:10.473Z,97.33
2022-12-22T05:03:38.926Z,89.60
2022-12-22T05:06:08.628Z,107.27
2022-12-22T05:08:37.282Z,112.67
2022-12-22T05:11:07.501Z,140.33
2022-12-22T05:13:36.225Z,103.83
2022-12-22T05:16:06.479Z,115.67
2022-12-22T05:18:35.188Z,99.47
2022-12-22T05:21:05.051Z,94.43
2022-12-22T05:23:33.596Z,100.67
2022-12-22T05:26:02.112Z,108.70
2022-12-22T05:28:32.292Z,97.37
2022-12-22T05:31:05.875Z,91.87
2022-12-22T05:33:34.637Z,100.27
2022-12-22T05:36:03.294Z,107.47
2022-12-22T05:38:31.907Z,103.87
2022-12-22T05:41:04.397Z,113.10
2022-12-22T05:43:35.015Z,114.73
2022-12-22T05:46:04.613Z,111.77
2022-12-22T05:48:38.102Z,123.03
2022-12-22T05:51:08.587Z,114.73
2022-12-22T05:53:37.179Z,125.00
2022-12-22T05:56:06.608Z,112.60
2022-12-22T05:58:36.728Z,117.47
2022-12-22T06:01:05.953Z,107.87
2022-12-22T06:03:59.462Z,114.73
2022-12-22T06:06:29.066Z,110.33
2022-12-22T06:08:57.524Z,115.53
2022-12-22T06:11:25.891Z,118.50
2022-12-22T06:13:55.680Z,121.60
2022-12-22T06:16:25.034Z,118.20
2022-12-22T06:18:53.404Z,112.85
2022-12-22T06:21:21.831Z,135.03
2022-12-22T06:23:50.427Z,157.63
2022-12-22T06:26:18.733Z,187.07
2022-12-22T06:28:47.098Z,223.07
2022-12-22T06:31:16.938Z,275.67
2022-12-22T06:33:45.803Z,301.87
2022-12-22T06:36:14.269Z,209.77
2022-12-22T06:38:43.223Z,306.47
2022-12-22T06:41:11.637Z,488.03
2022-12-22T06:43:39.040Z,581.23
2022-12-22T06:46:07.601Z,652.70
2022-12-22T06:48:37.376Z,661.90
2022-12-22T06:51:05.936Z,617.33
2022-12-22T06:53:34.318Z,624.97
2022-12-22T06:56:02.749Z,614.03
2022-12-22T06:58:31.248Z,569.80
2022-12-22T07:00:59.689Z,564.20
2022-12-22T07:03:28.369Z,554.93
2022-12-22T07:05:58.160Z,802.93
2022-12-22T07:08:26.580Z,620.57
2022-12-22T07:11:01.172Z,566.00
2022-12-22T07:13:31.965Z,723.83
2022-12-22T07:16:01.926Z,725.07
2022-12-22T07:18:32.948Z,681.40
2022-12-22T07:21:04.516Z,680.20
2022-12-22T07:23:33.695Z,637.90
2022-12-22T07:26:03.040Z,553.57
2022-12-22T07:28:33.831Z,457.73
2022-12-22T07:31:02.547Z,509.52
2022-12-22T07:33:31.307Z,367.60
2022-12-22T07:36:10.076Z,202.20
2022-12-22T07:38:40.297Z,205.83
2022-12-22T07:41:30.080Z,215.33
2022-12-22T07:43:59.018Z,164.73
2022-12-22T07:46:29.893Z,127.83
2022-12-22T07:49:16.325Z,114.10
2022-12-22T07:51:46.192Z,94.23
2022-12-22T07:54:16.389Z,96.13
2022-12-22T07:56:45.610Z,116.10
2022-12-22T07:59:14.653Z,116.17
2022-12-22T08:01:43.532Z,118.83
2022-12-22T08:04:12.834Z,111.50
2022-12-22T08:06:41.839Z,109.43
2022-12-22T08:09:15.890Z,118.73
2022-12-22T08:11:44.308Z,109.07
2022-12-22T08:14:12.734Z,108.33
2022-12-22T08:16:41.211Z,115.30
2022-12-22T08:19:09.823Z,107.17
2022-12-22T08:21:38.308Z,112.20
2022-12-22T08:24:07.746Z,110.53
2022-12-22T08:26:42.360Z,117.10
2022-12-22T08:29:13.644Z,117.63
2022-12-22T08:31:42.823Z,114.87
2022-12-22T08:34:15.800Z,105.37
2022-12-22T08:36:48.009Z,128.97
2022-12-22T08:39:17.513Z,105.73
2022-12-22T08:41:53.471Z,114.73
2022-12-22T08:44:23.574Z,111.97
2022-12-22T08:46:52.685Z,108.70
2022-12-22T08:49:21.697Z,103.20
2022-12-22T08:51:50.423Z,108.50
2022-12-22T08:54:19.071Z,95.07
2022-12-22T08:56:49.655Z,94.53
2022-12-22T08:59:18.937Z,97.63
2022-12-22T09:01:50.918Z,98.57
2022-12-22T09:04:21.581Z,101.70
2022-12-22T09:06:52.314Z,99.73
2022-12-22T09:09:21.402Z,103.30
2022-12-22T09:11:51.293Z,102.73
2022-12-22T09:14:19.706Z,105.30
2022-12-22T09:16:48.516Z,102.20
2022-12-22T09:19:17.232Z,98.13
2022-12-22T09:21:46.210Z,98.47
2022-12-22T09:24:15.281Z,95.13
2022-12-22T09:26:43.859Z,101.17
2022-12-22T09:29:15.591Z,107.57
2022-12-22T09:31:45.061Z,110.53
2022-12-22T09:34:18.190Z,97.77
2022-12-22T09:36:48.025Z,96.10
2022-12-22T09:39:17.208Z,91.53
2022-12-22T09:41:49.485Z,96.70
2022-12-22T09:44:25.250Z,90.13
2022-12-22T09:46:57.617Z,96.27
2022-12-22T09:49:26.528Z,96.73
2022-12-22T09:51:57.631Z,92.77
2022-12-22T09:54:27.443Z,101.47
2022-12-22T09:56:55.757Z,116.50
2022-12-22T09:59:31.308Z,142.27
2022-12-22T10:02:16.843Z,159.10
2022-12-22T10:05:01.678Z,145.33
2022-12-22T10:07:33.743Z,143.60
2022-12-22T10:10:07.986Z,145.63
2022-12-22T10:12:36.313Z,136.53
2022-12-22T10:15:11.749Z,135.70
2022-12-22T10:17:42.600Z,129.93
2022-12-22T10:20:25.528Z,124.87
2022-12-22T10:22:56.653Z,124.57
2022-12-22T10:25:52.503Z,115.93
2022-12-22T10:28:24.619Z,108.63
2022-12-22T10:31:15.561Z,100.50
2022-12-22T10:33:47.428Z,88.63
2022-12-22T10:36:21.398Z,96.23
2022-12-22T10:39:02.644Z,104.77
2022-12-22T10:41:34.002Z,95.60
2022-12-22T10:44:05.507Z,102.90
2022-12-22T10:46:41.439Z,99.83
2022-12-22T10:49:17.091Z,89.50
2022-12-22T10:51:49.274Z,92.07
2022-12-22T10:54:29.406Z,86.60
2022-12-22T10:57:16.737Z,83.40
2022-12-22T10:59:50.178Z,72.70
2022-12-22T11:02:30.209Z,74.87
2022-12-22T11:05:04.412Z,75.57
2022-12-22T11:07:35.599Z,72.33
2022-12-22T11:10:09.100Z,65.83
2022-12-22T11:12:50.803Z,64.33
2022-12-22T11:15:28.668Z,62.90
2022-12-22T11:18:09.060Z,50.73
2022-12-22T11:20:48.295Z,42.67
2022-12-22T11:23:25.985Z,48.10
2022-12-22T11:26:01.951Z,40.17
2022-12-22T11:28:46.275Z,39.20
2022-12-22T11:31:29.503Z,37.03
2022-12-22T11:34:14.464Z,27.70
2022-12-22T11:37:00.099Z,37.57
2022-12-22T11:39:39.242Z,32.17
2022-12-22T11:42:24.335Z,36.90
2022-12-22T11:45:01.939Z,37.10
2022-12-22T11:47:40.056Z,36.03
2022-12-22T11:51:01.704Z,40.53
2022-12-22T11:53:33.974Z,33.43
2022-12-22T11:56:13.623Z,33.40
2022-12-22T11:58:55.875Z,36.07
2022-12-22T12:01:40.272Z,30.83
2022-12-22T12:04:36.403Z,31.30
2022-12-22T12:07:26.273Z,27.87
2022-12-22T12:10:06.335Z,27.65
2022-12-22T12:12:47.305Z,27.93
2022-12-22T12:15:26.816Z,27.60
2022-12-22T12:18:21.440Z,25.08
2022-12-22T12:21:03.909Z,24.70
2022-12-22T12:23:57.059Z,25.40
2022-12-22T12:26:29.538Z,24.13
2022-12-22T12:29:11.166Z,21.70
2022-12-22T12:31:44.234Z,25.30
2022-12-22T12:34:17.035Z,25.27
2022-12-22T12:36:49.906Z,24.90
2022-12-22T12:39:26.413Z,21.40
2022-12-22T12:42:03.468Z,19.77
2022-12-22T12:44:38.524Z,19.83
2022-12-22T12:47:24.167Z,17.90
2022-12-22T12:50:04.611Z,15.03
2022-12-22T12:53:18.391Z,16.37
2022-12-22T12:56:03.143Z,10.53
2022-12-22T12:59:04.420Z,15.37
2022-12-22T13:01:58.323Z,13.80
2022-12-22T13:05:06.113Z,13.23
2022-12-22T13:08:10.632Z,15.87
2022-12-22T13:10:42.796Z,14.50
2022-12-22T13:13:49.528Z,15.80
2022-12-22T13:16:33.474Z,14.37
2022-12-22T13:19:06.428Z,11.73
2022-12-22T13:21:54.045Z,7.83
2022-12-22T13:24:30.505Z,11.40
2022-12-22T13:27:06.908Z,9.13
2022-12-22T13:29:52.867Z,12.00
2022-12-22T13:32:26.514Z,10.60
2022-12-22T13:37:55.006Z,13.95
2022-12-22T13:40:25.863Z,11.87
2022-12-22T13:42:56.225Z,12.53
2022-12-22T13:45:33.880Z,12.87
2022-12-22T13:48:09.192Z,10.63
2022-12-22T13:50:43.442Z,12.73
2022-12-22T13:53:49.565Z,12.13
2022-12-22T13:56:09.698Z,15.77
2022-12-22T13:58:40.813Z,14.73
2022-12-22T14:01:19.809Z,19.20
2022-12-22T14:04:00.965Z,13.27
2022-12-22T14:06:32.856Z,15.10
2022-12-22T14:09:16.280Z,16.17
2022-12-22T14:11:52.001Z,19.10
2022-12-22T14:14:25.706Z,23.63
2022-12-22T14:16:58.555Z,18.70
2022-12-22T14:19:29.165Z,16.07
2022-12-22T14:22:05.863Z,14.77
2022-12-22T14:24:39.086Z,13.97
2022-12-22T14:27:14.633Z,17.30
2022-12-22T14:29:43.240Z,14.15
2022-12-22T14:32:33.363Z,18.93
2022-12-22T14:35:01.689Z,14.10
2022-12-22T14:37:32.942Z,20.53
2022-12-22T14:40:01.791Z,18.27
2022-12-22T14:42:31.993Z,17.80
2022-12-22T14:45:01.628Z,14.50
2022-12-22T14:47:31.321Z,22.58
2022-12-22T14:50:04.345Z,15.13
2022-12-22T14:52:44.372Z,18.88
2022-12-22T14:55:26.552Z,13.90
2022-12-22T14:57:56.999Z,12.95
2022-12-22T15:00:32.792Z,22.48
2022-12-22T15:03:04.661Z,17.00
2022-12-22T15:05:35.838Z,17.77
2022-12-22T15:08:07.164Z,18.13
2022-12-22T15:10:40.974Z,21.83
2022-12-22T15:13:18.440Z,23.10
2022-12-22T15:15:46.843Z,24.73
2022-12-22T15:18:16.945Z,20.02
2022-12-22T15:20:45.446Z,17.65
2022-12-22T15:23:17.203Z,23.45
2022-12-22T15:25:46.685Z,34.20
2022-12-22T15:28:15.251Z,21.95
2022-12-22T15:30:44.229Z,23.10
2022-12-22T15:33:14.977Z,25.20
2022-12-22T15:35:45.731Z,25.80
2022-12-22T15:38:16.071Z,38.10
2022-12-22T15:40:44.941Z,31.77
2022-12-22T15:43:53.494Z,33.42
2022-12-22T15:46:05.799Z,39.38
2022-12-22T15:48:37.189Z,35.92
2022-12-22T15:51:10.085Z,33.88
2022-12-22T15:53:38.634Z,30.33
2022-12-22T15:56:17.444Z,33.63
2022-12-22T15:58:46.936Z,26.50
2022-12-22T16:01:15.526Z,31.13
2022-12-22T16:03:43.914Z,34.67
2022-12-22T16:06:15.833Z,34.72
2022-12-22T16:08:50.664Z,27.88
2022-12-22T16:11:19.430Z,28.52
2022-12-22T16:13:49.321Z,31.52
2022-12-22T16:16:18.339Z,30.90
2022-12-22T16:18:46.722Z,40.33
2022-12-22T16:21:20.059Z,35.30
2022-12-22T16:23:49.963Z,34.15
2022-12-22T16:26:20.656Z,36.43
2022-12-22T16:28:49.449Z,26.80
2022-12-22T16:31:21.089Z,31.10
2022-12-22T16:33:50.395Z,35.95
2022-12-22T16:36:20.511Z,31.90
2022-12-22T16:38:48.966Z,31.15
2022-12-22T16:41:23.139Z,33.80
2022-12-22T16:46:40.175Z,44.47
2022-12-22T16:49:10.171Z,43.45
2022-12-22T16:51:47.408Z,34.72
2022-12-22T16:54:16.165Z,52.72
2022-12-22T16:56:47.141Z,44.25
2022-12-22T16:59:16.793Z,40.67
2022-12-22T17:01:49.833Z,53.65
2022-12-22T17:06:54.758Z,37.42
2022-12-22T17:09:27.088Z,51.23
2022-12-22T17:11:56.164Z,50.35
2022-12-22T17:14:30.451Z,57.13
2022-12-22T17:16:59.653Z,48.03
2022-12-22T17:19:28.179Z,45.28
2022-12-22T17:22:00.032Z,44.00
2022-12-22T17:24:29.405Z,53.22
2022-12-22T17:27:02.205Z,41.57
2022-12-22T17:29:30.702Z,46.30
2022-12-22T17:31:59.381Z,39.13
2022-12-22T17:34:28.244Z,45.90
2022-12-22T17:36:59.355Z,45.70
2022-12-22T17:39:27.768Z,43.65
2022-12-22T17:41:57.507Z,50.67
2022-12-22T17:44:27.878Z,46.38
2022-12-22T17:46:56.706Z,46.22
2022-12-22T17:49:25.242Z,61.70
2022-12-22T17:51:53.706Z,43.67
2022-12-22T17:54:25.490Z,45.97
2022-12-22T17:57:03.590Z,57.00
2022-12-22T17:59:32.052Z,49.47
2022-12-22T18:02:01.654Z,57.78
2022-12-22T18:04:30.227Z,59.45
2022-12-22T18:06:59.557Z,59.13
2022-12-22T18:09:29.319Z,53.63
2022-12-22T18:11:57.681Z,53.97
2022-12-22T18:14:27.552Z,49.03
2022-12-22T18:16:55.917Z,55.33
2022-12-22T18:19:24.644Z,67.85
2022-12-22T18:21:53.140Z,49.80
2022-12-22T18:24:21.561Z,62.70
2022-12-22T18:26:51.354Z,65.22
2022-12-22T18:29:20.512Z,56.15
2022-12-22T18:31:48.960Z,52.70
2022-12-22T18:34:17.519Z,60.87
2022-12-22T18:36:47.802Z,61.07
2022-12-22T18:39:19.196Z,52.80
2022-12-22T18:41:48.058Z,53.08
2022-12-22T18:44:18.991Z,51.20
2022-12-22T18:46:48.784Z,53.67
2022-12-22T18:49:17.367Z,48.47
2022-12-22T18:51:46.592Z,58.13
2022-12-22T18:54:23.974Z,44.05
2022-12-22T18:56:52.594Z,52.55
2022-12-22T18:59:29.719Z,51.10
2022-12-22T19:02:01.906Z,48.50
2022-12-22T19:04:30.543Z,50.88
2022-12-22T19:06:59.081Z,53.25
2022-12-22T19:09:27.485Z,51.75
2022-12-22T19:11:56.001Z,35.23
2022-12-22T19:14:24.544Z,53.95
2022-12-22T19:16:55.943Z,41.30
2022-12-22T19:19:24.438Z,52.60
2022-12-22T19:21:53.729Z,41.10
2022-12-22T19:24:22.151Z,47.67
2022-12-22T19:26:50.495Z,45.13
2022-12-22T19:29:18.980Z,48.70
2022-12-22T19:31:47.614Z,51.08
2022-12-22T19:34:21.250Z,54.17
2022-12-22T19:36:49.735Z,43.97
2022-12-22T19:39:18.144Z,58.10
2022-12-22T19:41:48.378Z,43.08
2022-12-22T19:44:23.291Z,36.97
2022-12-22T19:46:52.471Z,40.13
2022-12-22T19:49:24.283Z,45.97
2022-12-22T19:51:52.794Z,47.90
2022-12-22T19:54:21.205Z,46.03
2022-12-22T19:56:53.422Z,40.60
2022-12-22T19:59:31.210Z,40.67
2022-12-22T20:02:03.232Z,40.35
2022-12-22T20:04:33.117Z,38.65
2022-12-22T20:07:01.529Z,45.90
2022-12-22T20:09:30.234Z,46.17
2022-12-22T20:11:58.829Z,40.88
2022-12-22T20:14:27.197Z,39.50
2022-12-22T20:16:55.693Z,47.33
2022-12-22T20:19:24.128Z,40.58
2022-12-22T20:21:54.019Z,44.20
2022-12-22T20:24:23.744Z,34.15
2022-12-22T20:26:54.759Z,45.80
2022-12-22T20:29:25.308Z,50.90
2022-12-22T20:31:54.099Z,38.03
2022-12-22T20:34:22.518Z,39.85
2022-12-22T20:36:51.023Z,39.75
2022-12-22T20:39:21.445Z,39.30
2022-12-22T20:41:53.755Z,42.00
2022-12-22T20:44:23.507Z,38.20
2022-12-22T20:46:52.384Z,45.20
2022-12-22T20:49:20.784Z,42.88
2022-12-22T20:51:49.521Z,37.75
2022-12-22T20:54:18.813Z,35.28
2022-12-22T20:56:48.575Z,35.75
2022-12-22T20:59:18.781Z,34.97
2022-12-22T21:01:48.278Z,29.52
2022-12-22T21:04:17.094Z,37.20
2022-12-22T21:06:48.345Z,36.17
2022-12-22T21:09:17.763Z,32.05
2022-12-22T21:11:46.445Z,31.25
2022-12-22T21:14:16.653Z,33.30
2022-12-22T21:16:47.693Z,27.10
2022-12-22T21:19:19.923Z,29.17
2022-12-22T21:21:48.534Z,32.90
2022-12-22T21:24:18.700Z,32.60
2022-12-22T21:26:49.267Z,38.55
2022-12-22T21:29:22.599Z,29.70
2022-12-22T21:31:51.275Z,27.67
2022-12-22T21:34:20.575Z,27.33
2022-12-22T21:36:53.819Z,33.95
2022-12-22T21:39:26.353Z,30.02
2022-12-22T21:42:04.641Z,33.53
2022-12-22T21:44:36.563Z,29.05
2022-12-22T21:47:05.222Z,20.58
2022-12-22T21:49:34.904Z,24.02
2022-12-22T21:52:03.400Z,29.65
2022-12-22T21:54:31.818Z,26.50
2022-12-22T21:57:00.376Z,34.10
2022-12-22T21:59:29.011Z,25.60
2022-12-22T22:01:58.868Z,40.03
2022-12-22T22:04:27.464Z,54.07
2022-12-22T22:06:55.849Z,48.72
2022-12-22T22:09:24.235Z,41.57
2022-12-22T22:12:10.034Z,64.73
2022-12-22T22:14:38.610Z,95.50
2022-12-22T22:17:10.945Z,37.93
2022-12-22T22:19:39.331Z,38.83
2022-12-22T22:22:07.673Z,31.43
2022-12-22T22:24:36.451Z,36.80
2022-12-22T22:27:05.003Z,25.73
2022-12-22T22:29:33.476Z,28.02
2022-12-22T22:32:01.874Z,28.88
2022-12-22T22:34:31.877Z,33.13
2022-12-22T22:37:00.264Z,25.63
2022-12-22T22:39:28.683Z,29.80
2022-12-22T22:41:57.233Z,24.20
2022-12-22T22:44:25.579Z,31.57
2022-12-22T22:46:54.075Z,33.78
2022-12-22T22:49:28.117Z,35.10
2022-12-22T22:51:58.568Z,28.25
2022-12-22T22:54:26.900Z,29.10
2022-12-22T22:56:55.526Z,26.25
2022-12-22T22:59:24.222Z,24.52
2022-12-22T23:01:52.708Z,21.20
2022-12-22T23:04:21.342Z,26.80
2022-12-22T23:06:50.896Z,29.17
2022-12-22T23:09:20.660Z,22.30
2022-12-22T23:11:49.177Z,30.98
2022-12-22T23:14:17.473Z,29.30
2022-12-22T23:16:45.927Z,28.33
2022-12-22T23:19:14.771Z,29.63
2022-12-22T23:21:43.584Z,27.02
2022-12-22T23:24:12.404Z,29.05
2022-12-22T23:26:42.093Z,30.20
2022-12-22T23:29:10.574Z,23.40
2022-12-22T23:31:39.120Z,32.55
2022-12-22T23:34:07.517Z,25.52
2022-12-22T23:36:35.977Z,24.97
2022-12-22T23:39:04.854Z,25.83
2022-12-22T23:41:33.295Z,26.52
2022-12-22T23:44:03.355Z,25.53
2022-12-22T23:46:31.799Z,25.70
2022-12-22T23:49:00.582Z,24.75
2022-12-22T23:51:30.550Z,24.38
2022-12-22T23:54:01.330Z,19.55
2022-12-22T23:56:30.305Z,26.20
2022-12-22T23:58:59.300Z,16.63
